Skip Navigation LinksHome page > Weather > Current weather Skip Navigation Links

Current Weather

Southend-on-Sea, United Kingdom

For information only: do not use for flight planning or navigation.
Latest weather
Observation time Friday, December 3, 2021 9:20 AM GMT
Local time Friday, December 3, 2021 9:36 AM GMT
Flight conditions Marginal Visual Meteorological Conditions
Winds
Wind direction South-Southwest (210°)
Wind speed 17 mph
Visibility 6.2 mi.
Sky condition
Ceiling 1,000 ft. broken clouds
Cloud layer broken clouds 1,000 ft.
Temperature 43°F
Dewpoint 41°F
Altimeter 29.65 in.Hg
Derived measurements
Relative humidity 93%
Wind chill 35°F
Density altitude -643 ft.
METAR EGMC 030920Z 21015KT 9999 BKN010 06/05 Q1004

Settings

Location code

InnerDrive.Weather 4.0.6770.0 Release CLR 4.0.30319.42000
Copyright ©2018 Inner Drive Technology. All rights reserved. Portions Copyright ©1986-2018 David Braverman.

Find weather

Site navigation


Skip Navigation Links

Place info

Page info

PayPal - The safer, easier way to pay online!

Return home.

Copyright ©2021 Inner Drive Technology. Purveyors of fine, hand-crafted computer software. Page printed 2021-12-03T09:36:06 UTC.